createdAt,value
2023-03-11T00:00:23.000Z,3.94
2023-03-11T00:02:51.455Z,3.80
2023-03-11T00:05:20.838Z,3.76
2023-03-11T00:07:47.523Z,3.72
2023-03-11T00:10:16.684Z,3.66
2023-03-11T00:12:43.281Z,3.70
2023-03-11T00:15:10.444Z,3.71
2023-03-11T00:17:37.046Z,3.74
2023-03-11T00:20:05.743Z,3.61
2023-03-11T00:22:32.739Z,3.64
2023-03-11T00:24:59.435Z,3.53
2023-03-11T00:27:29.608Z,3.39
2023-03-11T00:29:56.151Z,3.31
2023-03-11T00:32:22.786Z,3.35
2023-03-11T00:34:49.538Z,3.37
2023-03-11T00:37:16.115Z,3.34
2023-03-11T00:39:42.713Z,3.35
2023-03-11T00:42:10.827Z,3.26
2023-03-11T00:44:39.105Z,3.18
2023-03-11T00:47:05.855Z,3.04
2023-03-11T00:49:32.858Z,3.05
2023-03-11T00:51:59.412Z,3.15
2023-03-11T00:54:25.980Z,3.14
2023-03-11T00:56:52.595Z,3.19
2023-03-11T00:59:19.198Z,3.23
2023-03-11T01:01:45.747Z,3.11
2023-03-11T01:04:12.466Z,3.11
2023-03-11T01:06:45.231Z,3.08
2023-03-11T01:09:12.391Z,3.04
2023-03-11T01:11:38.999Z,2.94
2023-03-11T01:14:05.545Z,2.85
2023-03-11T01:16:32.160Z,2.90
2023-03-11T01:18:58.735Z,2.98
2023-03-11T01:21:25.374Z,2.97
2023-03-11T01:23:52.057Z,2.80
2023-03-11T01:26:18.659Z,2.89
2023-03-11T01:28:45.206Z,2.91
2023-03-11T01:31:11.958Z,2.87
2023-03-11T01:33:38.540Z,2.98
2023-03-11T01:36:05.727Z,2.95
2023-03-11T01:38:32.256Z,2.89
2023-03-11T01:40:58.850Z,2.90
2023-03-11T01:43:55.039Z,2.87
2023-03-11T01:46:45.104Z,2.93
2023-03-11T01:49:12.637Z,2.85
2023-03-11T01:51:41.917Z,2.86
2023-03-11T01:54:13.866Z,2.81
2023-03-11T01:56:41.636Z,2.66
2023-03-11T01:59:10.431Z,2.63
2023-03-11T02:01:41.981Z,2.59
2023-03-11T02:04:08.769Z,2.67
2023-03-11T02:06:35.825Z,2.69
2023-03-11T02:09:02.390Z,2.70
2023-03-11T02:11:30.786Z,2.71
2023-03-11T02:14:02.484Z,2.75
2023-03-11T02:16:29.212Z,2.61
2023-03-11T02:19:00.955Z,2.53
2023-03-11T02:21:30.079Z,2.56
2023-03-11T02:24:04.027Z,2.53
2023-03-11T02:26:37.296Z,2.50
2023-03-11T02:29:05.398Z,2.60
2023-03-11T02:31:32.693Z,2.53
2023-03-11T02:34:02.034Z,2.52
2023-03-11T02:36:40.493Z,2.52
2023-03-11T02:39:10.171Z,2.48
2023-03-11T02:41:40.800Z,2.58
2023-03-11T02:44:09.174Z,2.66
2023-03-11T02:46:37.179Z,2.70
2023-03-11T02:49:03.854Z,2.50
2023-03-11T02:51:30.448Z,2.56
2023-03-11T02:53:59.615Z,2.53
2023-03-11T02:56:27.092Z,2.54
2023-03-11T02:58:53.749Z,2.48
2023-03-11T03:01:20.713Z,2.47
2023-03-11T03:03:48.663Z,2.51
2023-03-11T03:06:15.401Z,2.51
2023-03-11T03:08:41.992Z,2.67
2023-03-11T03:11:08.801Z,2.72
2023-03-11T03:13:36.321Z,2.69
2023-03-11T03:16:03.188Z,2.73
2023-03-11T03:18:29.874Z,2.53
2023-03-11T03:20:56.379Z,2.48
2023-03-11T03:23:23.268Z,2.34
2023-03-11T03:25:50.107Z,2.37
2023-03-11T03:28:16.809Z,2.46
2023-03-11T03:30:45.388Z,2.48
2023-03-11T03:33:13.492Z,2.37
2023-03-11T03:35:42.454Z,2.34
2023-03-11T03:38:14.986Z,2.32
2023-03-11T03:40:46.870Z,2.37
2023-03-11T03:43:16.184Z,2.25
2023-03-11T03:45:44.880Z,2.38
2023-03-11T03:48:11.577Z,2.27
2023-03-11T03:50:42.577Z,2.03
2023-03-11T03:53:12.755Z,2.20
2023-03-11T03:55:39.292Z,2.27
2023-03-11T03:58:05.836Z,2.30
2023-03-11T04:00:34.422Z,2.34
2023-03-11T04:03:02.807Z,2.29
2023-03-11T04:05:45.211Z,2.24
2023-03-11T04:08:13.703Z,2.39
2023-03-11T04:10:40.584Z,2.54
2023-03-11T04:13:07.455Z,2.63
2023-03-11T04:15:34.164Z,2.50
2023-03-11T04:18:00.822Z,2.49
2023-03-11T04:20:27.405Z,2.52
2023-03-11T04:22:54.089Z,2.50
2023-03-11T04:25:23.353Z,2.46
2023-03-11T04:27:52.264Z,2.48
2023-03-11T04:30:19.828Z,2.38
2023-03-11T04:32:48.369Z,2.47
2023-03-11T04:35:15.080Z,2.48
2023-03-11T04:37:41.653Z,2.46
2023-03-11T04:40:10.168Z,2.54
2023-03-11T04:42:37.182Z,2.70
2023-03-11T04:45:04.291Z,2.58
2023-03-11T04:47:31.296Z,2.65
2023-03-11T04:49:58.197Z,2.76
2023-03-11T04:52:25.075Z,2.77
2023-03-11T04:54:52.278Z,2.51
2023-03-11T04:57:18.905Z,2.64
2023-03-11T04:59:45.635Z,2.66
2023-03-11T05:02:13.970Z,2.54
2023-03-11T05:04:47.364Z,2.52
2023-03-11T05:07:15.271Z,2.57
2023-03-11T05:09:42.352Z,2.53
2023-03-11T05:12:11.479Z,2.49
2023-03-11T05:14:39.178Z,2.59
2023-03-11T05:17:05.980Z,2.51
2023-03-11T05:19:34.710Z,2.62
2023-03-11T05:22:07.668Z,2.57
2023-03-11T05:24:34.428Z,2.53
2023-03-11T05:27:02.075Z,2.70
2023-03-11T05:29:30.089Z,2.66
2023-03-11T05:31:56.958Z,2.52
2023-03-11T05:34:23.761Z,2.48
2023-03-11T05:36:50.446Z,2.60
2023-03-11T05:39:17.658Z,2.58
2023-03-11T05:41:44.440Z,2.65
2023-03-11T05:44:11.087Z,2.57
2023-03-11T05:46:37.843Z,2.59
2023-03-11T05:49:06.143Z,2.46
2023-03-11T05:51:32.770Z,2.57
2023-03-11T05:53:59.319Z,2.64
2023-03-11T05:56:34.733Z,2.67
2023-03-11T05:59:01.980Z,2.71
2023-03-11T06:01:31.961Z,2.67
2023-03-11T06:03:58.643Z,2.63
2023-03-11T06:06:25.374Z,2.67
2023-03-11T06:08:52.205Z,2.66
2023-03-11T06:11:20.605Z,2.75
2023-03-11T06:13:47.322Z,2.72
2023-03-11T06:16:14.350Z,2.51
2023-03-11T06:18:41.079Z,2.60
2023-03-11T06:21:08.625Z,2.55
2023-03-11T06:23:35.519Z,2.62
2023-03-11T06:26:05.100Z,2.56
2023-03-11T06:28:36.780Z,2.61
2023-03-11T06:31:08.244Z,2.70
2023-03-11T06:33:35.071Z,2.64
2023-03-11T06:36:02.602Z,2.78
2023-03-11T06:38:29.844Z,2.77
2023-03-11T06:41:00.847Z,2.71
2023-03-11T06:43:28.629Z,2.64
2023-03-11T06:45:55.429Z,2.62
2023-03-11T06:48:22.277Z,2.66
2023-03-11T06:50:56.420Z,2.77
2023-03-11T06:53:23.186Z,2.67
2023-03-11T06:56:08.099Z,2.74
2023-03-11T06:58:41.873Z,2.68
2023-03-11T07:01:12.897Z,2.73
2023-03-11T07:03:39.712Z,2.54
2023-03-11T07:06:06.842Z,2.60
2023-03-11T07:08:33.791Z,2.58
2023-03-11T07:11:12.691Z,2.63
2023-03-11T07:13:39.330Z,2.68
2023-03-11T07:16:11.839Z,2.72
2023-03-11T07:18:39.574Z,2.77
2023-03-11T07:21:08.012Z,2.80
2023-03-11T07:23:35.482Z,2.74
2023-03-11T07:26:02.207Z,2.65
2023-03-11T07:28:29.501Z,2.39
2023-03-11T07:30:56.704Z,2.63
2023-03-11T07:33:24.550Z,2.93
2023-03-11T07:35:51.617Z,3.33
2023-03-11T07:38:19.784Z,3.52
2023-03-11T07:40:46.800Z,3.52
2023-03-11T07:43:13.666Z,3.64
2023-03-11T07:45:40.402Z,3.74
2023-03-11T07:48:07.305Z,3.81
2023-03-11T07:50:33.956Z,3.56
2023-03-11T07:53:00.518Z,3.58
2023-03-11T07:55:27.170Z,3.52
2023-03-11T07:57:53.790Z,3.66
2023-03-11T08:00:20.500Z,3.58
2023-03-11T08:02:47.102Z,3.49
2023-03-11T08:05:13.888Z,3.47
2023-03-11T08:07:40.465Z,3.71
2023-03-11T08:10:07.464Z,3.77
2023-03-11T08:12:34.023Z,3.84
2023-03-11T08:15:00.629Z,3.85
2023-03-11T08:17:27.281Z,3.90
2023-03-11T08:19:53.817Z,3.81
2023-03-11T08:22:20.575Z,3.86
2023-03-11T08:24:51.026Z,4.25
2023-03-11T08:27:17.562Z,4.35
2023-03-11T08:29:44.060Z,4.38
2023-03-11T08:32:10.662Z,4.33
2023-03-11T08:34:39.299Z,4.22
2023-03-11T08:37:06.271Z,4.34
2023-03-11T08:39:33.074Z,4.30
2023-03-11T08:41:59.896Z,4.47
2023-03-11T08:44:26.425Z,4.27
2023-03-11T08:46:53.061Z,4.27
2023-03-11T08:49:19.617Z,4.18
2023-03-11T08:51:46.226Z,3.91
2023-03-11T08:54:12.773Z,3.89
2023-03-11T08:56:39.424Z,4.01
2023-03-11T08:59:06.132Z,4.10
2023-03-11T09:01:32.819Z,4.18
2023-03-11T09:03:59.413Z,4.24
2023-03-11T09:06:26.032Z,4.31
2023-03-11T09:08:52.585Z,4.33
2023-03-11T09:11:19.322Z,4.19
2023-03-11T09:13:45.867Z,4.18
2023-03-11T09:16:17.179Z,4.25
2023-03-11T09:18:44.072Z,4.07
2023-03-11T09:21:10.823Z,4.25
2023-03-11T09:23:37.626Z,4.18
2023-03-11T09:26:04.350Z,4.25
2023-03-11T09:28:30.967Z,4.20
2023-03-11T09:30:57.831Z,4.06
2023-03-11T09:33:24.976Z,4.17
2023-03-11T09:35:51.590Z,4.22
2023-03-11T09:38:20.974Z,4.18
2023-03-11T09:41:02.840Z,4.29
2023-03-11T09:43:39.942Z,4.47
2023-03-11T09:46:36.114Z,4.50
2023-03-11T09:49:35.942Z,4.53
2023-03-11T09:52:14.924Z,4.57
2023-03-11T09:54:53.241Z,4.72
2023-03-11T09:57:23.307Z,4.76
2023-03-11T09:59:50.204Z,4.49
2023-03-11T10:02:19.769Z,4.48
2023-03-11T10:04:51.516Z,4.39
2023-03-11T10:07:22.130Z,4.35
2023-03-11T10:09:53.370Z,4.30
2023-03-11T10:12:32.119Z,4.18
2023-03-11T10:15:14.043Z,4.12
2023-03-11T10:18:08.048Z,4.09
2023-03-11T10:20:44.363Z,3.94
2023-03-11T10:23:44.952Z,3.81
2023-03-11T10:26:17.135Z,3.96
2023-03-11T10:28:51.201Z,3.84
2023-03-11T10:31:27.672Z,3.86
2023-03-11T10:34:04.667Z,3.89
2023-03-11T10:36:49.148Z,3.87
2023-03-11T10:39:15.904Z,3.94
2023-03-11T10:41:54.536Z,4.09
2023-03-11T10:44:40.912Z,4.25
2023-03-11T10:47:15.182Z,4.35
2023-03-11T10:49:41.979Z,4.49
2023-03-11T10:52:08.562Z,4.66
2023-03-11T10:54:39.893Z,4.85
2023-03-11T10:57:21.973Z,5.03
2023-03-11T10:59:50.910Z,5.06
2023-03-11T11:02:20.638Z,5.00
2023-03-11T11:04:47.389Z,4.88
2023-03-11T11:07:22.594Z,4.92
2023-03-11T11:10:11.828Z,5.03
2023-03-11T11:12:56.203Z,5.01
2023-03-11T11:15:34.381Z,4.99
2023-03-11T11:18:06.656Z,4.90
2023-03-11T11:20:53.921Z,5.02
2023-03-11T11:23:36.565Z,5.11
2023-03-11T11:26:06.637Z,5.11
2023-03-11T11:28:33.655Z,5.16
2023-03-11T11:31:19.034Z,5.12
2023-03-11T11:33:54.037Z,5.25
2023-03-11T11:36:24.335Z,5.54
2023-03-11T11:38:56.949Z,5.85
2023-03-11T11:41:25.094Z,5.89
2023-03-11T11:43:54.823Z,6.21
2023-03-11T11:46:42.617Z,6.33
2023-03-11T11:49:21.331Z,6.70
2023-03-11T11:51:51.785Z,6.94
2023-03-11T11:54:31.835Z,6.78
2023-03-11T11:56:58.533Z,6.75
2023-03-11T11:59:25.370Z,6.65
2023-03-11T12:02:27.521Z,6.70
2023-03-11T12:05:15.303Z,6.53
2023-03-11T12:08:12.699Z,6.80
2023-03-11T12:10:51.221Z,7.17
2023-03-11T12:13:24.709Z,7.25
2023-03-11T12:15:59.533Z,7.31
2023-03-11T12:18:30.478Z,7.48
2023-03-11T12:20:57.594Z,7.71
2023-03-11T12:23:36.564Z,7.97
2023-03-11T12:26:16.890Z,8.27
2023-03-11T12:28:51.764Z,8.40
2023-03-11T12:31:18.921Z,8.39
2023-03-11T12:33:46.061Z,8.46
2023-03-11T12:36:26.627Z,8.42
2023-03-11T12:38:53.952Z,8.08
2023-03-11T12:41:27.742Z,8.28
2023-03-11T12:44:02.671Z,8.14
2023-03-11T12:46:59.594Z,7.83
2023-03-11T12:49:30.622Z,7.70
2023-03-11T12:52:18.249Z,8.03
2023-03-11T12:54:46.699Z,7.92
2023-03-11T12:57:16.375Z,8.19
2023-03-11T13:00:19.652Z,9.00
2023-03-11T13:03:01.402Z,9.68
2023-03-11T13:06:09.028Z,9.51
2023-03-11T13:08:44.931Z,9.11
2023-03-11T13:11:33.291Z,8.82
2023-03-11T13:14:14.952Z,8.59
2023-03-11T13:16:42.239Z,8.60
2023-03-11T13:19:27.115Z,8.08
2023-03-11T13:21:54.658Z,7.87
2023-03-11T13:24:22.155Z,8.07
2023-03-11T13:27:04.451Z,7.53
2023-03-11T13:29:45.107Z,7.09
2023-03-11T13:32:31.404Z,6.89
2023-03-11T13:35:36.338Z,6.71
2023-03-11T13:38:17.072Z,6.34
2023-03-11T13:40:45.006Z,6.06
2023-03-11T13:43:20.602Z,5.96
2023-03-11T13:45:54.127Z,6.00
2023-03-11T13:48:26.435Z,5.84
2023-03-11T13:50:59.466Z,5.79
2023-03-11T13:53:31.071Z,5.60
2023-03-11T13:55:57.721Z,5.63
2023-03-11T13:58:26.549Z,5.48
2023-03-11T14:00:55.198Z,5.62
2023-03-11T14:03:23.944Z,5.99
2023-03-11T14:05:57.170Z,6.20
2023-03-11T14:08:29.320Z,6.65
2023-03-11T14:10:57.121Z,7.10
2023-03-11T14:13:25.320Z,7.38
2023-03-11T14:16:08.165Z,7.44
2023-03-11T14:18:41.745Z,7.87
2023-03-11T14:21:16.721Z,8.05
2023-03-11T14:23:51.540Z,8.08
2023-03-11T14:26:23.812Z,8.20
2023-03-11T14:28:52.636Z,7.94
2023-03-11T14:31:40.018Z,7.76
2023-03-11T14:34:27.722Z,7.53
2023-03-11T14:37:00.578Z,6.89
2023-03-11T14:39:34.109Z,6.75
2023-03-11T14:42:19.013Z,6.46
2023-03-11T14:44:50.794Z,6.28
2023-03-11T14:47:29.484Z,6.20
2023-03-11T14:49:56.198Z,6.10
2023-03-11T14:52:33.442Z,5.70
2023-03-11T14:55:00.576Z,5.61
2023-03-11T14:57:36.389Z,5.61
2023-03-11T15:00:07.921Z,5.73
2023-03-11T15:02:55.647Z,5.82
2023-03-11T15:05:28.321Z,5.95
2023-03-11T15:07:59.178Z,5.92
2023-03-11T15:10:25.730Z,5.87
2023-03-11T15:13:05.030Z,5.81
2023-03-11T15:15:31.648Z,5.48
2023-03-11T15:17:59.516Z,5.48
2023-03-11T15:20:34.738Z,5.19
2023-03-11T15:23:06.257Z,5.21
2023-03-11T15:25:35.189Z,5.00
2023-03-11T15:28:22.171Z,4.69
2023-03-11T15:30:48.824Z,4.75
2023-03-11T15:33:23.999Z,4.68
2023-03-11T15:35:50.643Z,4.72
2023-03-11T15:38:23.680Z,4.71
2023-03-11T15:40:53.396Z,4.68
2023-03-11T15:43:26.901Z,4.49
2023-03-11T15:45:54.364Z,4.60
2023-03-11T15:48:22.193Z,4.42
2023-03-11T15:50:55.317Z,4.54
2023-03-11T15:53:23.005Z,4.49
2023-03-11T15:55:50.074Z,4.36
2023-03-11T15:58:18.546Z,4.48
2023-03-11T16:00:53.204Z,4.47
2023-03-11T16:03:19.891Z,4.42
2023-03-11T16:05:46.778Z,4.48
2023-03-11T16:08:13.479Z,4.53
2023-03-11T16:10:40.355Z,4.56
2023-03-11T16:13:07.176Z,4.49
2023-03-11T16:15:36.723Z,4.57
2023-03-11T16:18:05.973Z,4.55
2023-03-11T16:20:37.497Z,4.53
2023-03-11T16:23:04.274Z,4.54
2023-03-11T16:25:33.922Z,4.61
2023-03-11T16:28:01.263Z,4.51
2023-03-11T16:30:29.465Z,4.55
2023-03-11T16:32:56.026Z,4.53
2023-03-11T16:35:23.020Z,4.53
2023-03-11T16:37:49.721Z,4.49
2023-03-11T16:40:20.677Z,4.58
2023-03-11T16:42:47.617Z,4.46
2023-03-11T16:45:15.887Z,4.42
2023-03-11T16:47:42.473Z,4.44
2023-03-11T16:50:11.194Z,4.44
2023-03-11T16:52:37.848Z,4.44
2023-03-11T16:55:04.900Z,4.40
2023-03-11T16:57:31.506Z,4.37
2023-03-11T16:59:58.329Z,4.36
2023-03-11T17:02:25.390Z,4.35
2023-03-11T17:04:52.087Z,4.34
2023-03-11T17:07:18.755Z,4.31
2023-03-11T17:09:45.411Z,4.27
2023-03-11T17:12:15.659Z,4.24
2023-03-11T17:14:42.461Z,4.22
2023-03-11T17:17:09.103Z,4.16
2023-03-11T17:19:35.685Z,4.17
2023-03-11T17:22:02.389Z,4.14
2023-03-11T17:24:29.722Z,4.10
2023-03-11T17:26:56.366Z,4.07
2023-03-11T17:29:23.151Z,3.97
2023-03-11T17:31:49.831Z,3.91
2023-03-11T17:34:16.795Z,3.90
2023-03-11T17:36:43.422Z,3.93
2023-03-11T17:39:09.975Z,3.87
2023-03-11T17:41:36.846Z,3.87
2023-03-11T17:44:03.542Z,3.85
2023-03-11T17:46:30.126Z,3.80
2023-03-11T17:48:57.043Z,3.81
2023-03-11T17:51:25.927Z,3.81
2023-03-11T17:53:54.598Z,3.78
2023-03-11T17:56:21.973Z,3.73
2023-03-11T17:58:49.508Z,3.71
2023-03-11T18:01:18.681Z,3.67
2023-03-11T18:03:45.207Z,3.65
2023-03-11T18:06:13.193Z,3.65
2023-03-11T18:08:39.919Z,3.65
2023-03-11T18:11:09.627Z,3.64
2023-03-11T18:13:36.953Z,3.62
2023-03-11T18:16:09.595Z,3.65
2023-03-11T18:18:36.721Z,3.57
2023-03-11T18:21:05.027Z,3.48
2023-03-11T18:23:33.186Z,3.44
2023-03-11T18:26:01.116Z,3.44
2023-03-11T18:28:28.022Z,3.44
2023-03-11T18:30:54.607Z,3.43
2023-03-11T18:33:22.661Z,3.39
2023-03-11T18:35:49.327Z,3.41
2023-03-11T18:38:15.998Z,3.39
2023-03-11T18:40:42.716Z,3.39
2023-03-11T18:43:13.472Z,3.40
2023-03-11T18:45:40.062Z,3.31
2023-03-11T18:48:06.648Z,3.25
2023-03-11T18:50:33.183Z,3.24
2023-03-11T18:53:00.112Z,3.26
2023-03-11T18:55:26.720Z,3.21
2023-03-11T18:57:53.406Z,3.22
2023-03-11T19:00:23.591Z,3.13
2023-03-11T19:02:52.057Z,3.18
2023-03-11T19:05:19.333Z,3.19
2023-03-11T19:07:46.084Z,3.16
2023-03-11T19:10:15.355Z,3.18
2023-03-11T19:12:44.641Z,3.16
2023-03-11T19:15:11.496Z,3.12
2023-03-11T19:17:38.240Z,3.11
2023-03-11T19:20:08.422Z,3.10
2023-03-11T19:22:36.244Z,3.10
2023-03-11T19:25:04.405Z,3.08
2023-03-11T19:27:31.445Z,2.97
2023-03-11T19:29:58.042Z,2.92
2023-03-11T19:32:24.648Z,2.96
2023-03-11T19:34:51.302Z,2.83
2023-03-11T19:37:17.943Z,2.90
2023-03-11T19:39:44.606Z,2.92
2023-03-11T19:42:11.916Z,2.97
2023-03-11T19:44:38.647Z,2.99
2023-03-11T19:47:05.611Z,3.02
2023-03-11T19:49:32.099Z,2.97
2023-03-11T19:51:58.823Z,2.97
2023-03-11T19:54:31.448Z,2.98
2023-03-11T19:56:58.179Z,2.90
2023-03-11T19:59:24.999Z,2.91
2023-03-11T20:01:52.693Z,2.96
2023-03-11T20:04:19.346Z,2.98
2023-03-11T20:06:46.008Z,2.93
2023-03-11T20:09:13.488Z,2.91
2023-03-11T20:11:40.884Z,2.91
2023-03-11T20:14:08.039Z,2.90
2023-03-11T20:16:34.828Z,2.91
2023-03-11T20:19:01.653Z,2.91
2023-03-11T20:21:28.709Z,2.87
2023-03-11T20:23:55.971Z,2.90
2023-03-11T20:26:23.546Z,2.80
2023-03-11T20:29:18.020Z,2.78
2023-03-11T20:31:44.915Z,2.84
2023-03-11T20:34:12.152Z,2.85
2023-03-11T20:36:39.036Z,2.82
2023-03-11T20:39:09.983Z,2.86
2023-03-11T20:41:39.585Z,2.87
2023-03-11T20:44:08.425Z,2.86
2023-03-11T20:46:35.350Z,2.90
2023-03-11T20:49:02.674Z,2.88
2023-03-11T20:51:29.641Z,2.91
2023-03-11T20:53:56.201Z,2.89
2023-03-11T20:56:25.188Z,2.84
2023-03-11T20:58:56.508Z,2.91
2023-03-11T21:01:32.678Z,2.89
2023-03-11T21:04:01.964Z,2.84
2023-03-11T21:06:49.881Z,2.86
2023-03-11T21:09:16.605Z,2.82
2023-03-11T21:11:46.471Z,2.84
2023-03-11T21:14:18.827Z,2.88
2023-03-11T21:16:48.908Z,2.83
2023-03-11T21:19:15.700Z,2.81
2023-03-11T21:21:45.294Z,2.80
2023-03-11T21:24:12.487Z,2.84
2023-03-11T21:26:39.301Z,2.77
2023-03-11T21:29:06.097Z,2.88
2023-03-11T21:31:32.738Z,2.87
2023-03-11T21:34:01.306Z,2.87
2023-03-11T21:36:31.291Z,2.86
2023-03-11T21:38:58.071Z,2.89
2023-03-11T21:41:27.916Z,2.91
2023-03-11T21:43:56.239Z,2.89
2023-03-11T21:46:25.689Z,2.90
2023-03-11T21:48:52.484Z,2.88
2023-03-11T21:51:23.934Z,2.90
2023-03-11T21:53:51.130Z,2.90
2023-03-11T21:56:18.485Z,2.86
2023-03-11T21:58:54.895Z,2.92
2023-03-11T22:01:21.596Z,2.93
2023-03-11T22:03:48.427Z,2.98
2023-03-11T22:06:16.065Z,2.96
2023-03-11T22:08:42.865Z,2.94
2023-03-11T22:11:16.658Z,2.96
2023-03-11T22:13:45.530Z,2.92
2023-03-11T22:16:12.328Z,2.92
2023-03-11T22:18:39.102Z,2.96
2023-03-11T22:21:05.814Z,2.99
2023-03-11T22:23:32.667Z,2.99
2023-03-11T22:25:59.207Z,2.97
2023-03-11T22:28:26.581Z,2.99
2023-03-11T22:30:53.512Z,2.98
2023-03-11T22:33:20.554Z,2.94
2023-03-11T22:35:53.786Z,3.02
2023-03-11T22:38:21.094Z,3.02
2023-03-11T22:40:47.828Z,2.97
2023-03-11T22:43:14.373Z,3.05
2023-03-11T22:45:41.172Z,3.05
2023-03-11T22:48:07.868Z,3.04
2023-03-11T22:50:34.915Z,3.03
2023-03-11T22:53:01.526Z,3.02
2023-03-11T22:55:28.055Z,3.01
2023-03-11T22:57:54.698Z,3.00
2023-03-11T23:00:22.490Z,3.05
2023-03-11T23:02:53.128Z,3.01
2023-03-11T23:05:20.085Z,3.03
2023-03-11T23:07:46.651Z,3.02
2023-03-11T23:10:14.097Z,3.02
2023-03-11T23:12:41.008Z,3.03
2023-03-11T23:15:10.870Z,2.97
2023-03-11T23:17:37.495Z,2.99
2023-03-11T23:20:05.636Z,3.01
2023-03-11T23:22:35.485Z,3.03
2023-03-11T23:25:07.152Z,2.98
2023-03-11T23:27:33.701Z,3.01
2023-03-11T23:30:00.224Z,2.94
2023-03-11T23:32:26.854Z,2.98
2023-03-11T23:34:53.482Z,2.98
2023-03-11T23:37:19.988Z,2.94
2023-03-11T23:39:46.568Z,2.97
2023-03-11T23:42:24.947Z,2.99
2023-03-11T23:44:52.725Z,2.93
2023-03-11T23:47:19.289Z,2.94
2023-03-11T23:49:45.882Z,2.94
2023-03-11T23:52:12.421Z,2.96
2023-03-11T23:54:39.069Z,2.96
2023-03-11T23:57:05.635Z,2.96
2023-03-11T23:59:32.403Z,2.94
